Time,TemperatureF,DewpointF,PressureIn,WindDirection,WindDirectionDegrees,WindSpeedMPH,WindSpeedGustMPH,Humidity,HourlyPrecipIn,Conditions,Clouds,dailyrainin,SolarRadiationWatts/m^2,SoftwareType,DateUTC
2013-02-22 08:17:00,45.9,41.9,22.35,North,0,8.1,0.0,86,0.00,OVC,OVC,0.31,0.0,WeatherDisplay:10.37,2013-02-22 16:17:00,
2013-02-22 08:18:00,45.9,41.9,29.56,North,0,8.1,0.0,86,0.00,CLR,CLR,0.31,0.0,WeatherDisplay:10.37,2013-02-22 16:18:00,
2013-02-22 08:19:00,45.9,41.9,29.56,East,84,8.1,8.1,86,0.00,CLR,CLR,0.31,0.0,WeatherDisplay:10.37,2013-02-22 16:19:00,
2013-02-22 08:25:00,45.9,41.9,22.35,East,84,8.1,8.1,86,0.00,CLR,CLR,0.31,0.0,WeatherDisplay:10.37,2013-02-22 16:25:00,
2013-02-22 10:05:00,44.4,27.4,24.51,North,0,8.1,0.0,51,0.00,CLR,CLR,0.31,0.0,WeatherDisplay:10.37,2013-02-22 18:05:00,
2013-02-22 10:10:00,44.4,27.4,24.51,SW,224,8.1,8.1,51,0.00,CLR,CLR,0.31,0.0,WeatherDisplay:10.37,2013-02-22 18:10:00,
2013-02-22 10:15:00,44.4,27.4,24.51,SW,224,8.1,8.1,51,0.00,CLR,CLR,0.31,0.0,WeatherDisplay:10.37,2013-02-22 18:15:00,
2013-02-22 10:21:00,44.4,27.4,25.34,SW,224,8.1,8.1,51,0.00,CLR,CLR,0.31,0.0,WeatherDisplay:10.37,2013-02-22 18:21:00,
2013-02-22 10:26:00,44.4,27.4,25.34,SW,224,8.1,8.1,51,0.00,CLR,CLR,0.31,0.0,WeatherDisplay:10.37,2013-02-22 18:26:00,
2013-02-22 10:31:00,44.4,27.4,25.34,SW,224,8.1,8.1,51,0.00,CLR,CLR,0.31,0.0,WeatherDisplay:10.37,2013-02-22 18:31:00,
2013-02-22 10:36:00,44.4,27.4,29.56,SW,224,8.1,8.1,51,0.00,CLR,CLR,0.31,0.0,WeatherDisplay:10.37,2013-02-22 18:36:00,
2013-02-22 10:41:00,44.4,27.4,29.56,SW,224,8.1,8.1,51,0.00,CLR,CLR,0.31,0.0,WeatherDisplay:10.37,2013-02-22 18:41:00,
2013-02-22 10:46:00,44.4,27.4,22.35,SW,224,8.1,8.1,51,0.00,CLR,CLR,0.31,0.0,WeatherDisplay:10.37,2013-02-22 18:46:00,
2013-02-22 10:51:00,44.4,27.4,29.56,SW,224,8.1,8.1,51,0.00,CLR,CLR,0.31,0.0,WeatherDisplay:10.37,2013-02-22 18:51:00,
2013-02-22 10:56:00,44.4,27.4,29.56,SW,224,8.1,8.1,51,0.00,CLR,CLR,0.31,0.0,WeatherDisplay:10.37,2013-02-22 18:56:00,
2013-02-22 11:01:00,44.4,27.4,21.53,SW,224,8.1,8.1,51,0.00,CLR,CLR,0.31,0.0,WeatherDisplay:10.37,2013-02-22 19:01:00,
2013-02-22 11:06:00,44.4,27.4,29.56,SW,224,8.1,8.1,51,0.00,CLR,CLR,0.31,0.0,WeatherDisplay:10.37,2013-02-22 19:06:00,
2013-02-22 11:11:00,44.4,27.4,29.56,SW,224,8.1,8.1,51,0.00,CLR,CLR,0.31,0.0,WeatherDisplay:10.37,2013-02-22 19:11:00,
2013-02-22 11:16:00,44.4,27.4,29.56,SW,224,8.1,8.1,51,0.00,CLR,CLR,0.31,0.0,WeatherDisplay:10.37,2013-02-22 19:16:00,
2013-02-22 11:21:00,44.4,27.4,29.56,SSW,199,8.1,8.1,51,0.00,CLR,CLR,0.31,0.0,WeatherDisplay:10.37,2013-02-22 19:21:00,
2013-02-22 11:26:00,46.9,42.7,29.56,SSW,199,8.1,8.1,85,0.00,CLR,CLR,0.31,0.0,WeatherDisplay:10.37,2013-02-22 19:26:00,
2013-02-22 11:31:00,46.9,42.7,29.56,SSW,199,8.1,8.1,85,0.00,CLR,CLR,0.31,0.0,WeatherDisplay:10.37,2013-02-22 19:31:00,
2013-02-22 11:36:00,46.9,42.7,29.56,SSW,199,8.1,8.1,85,0.00,CLR,CLR,0.31,0.0,WeatherDisplay:10.37,2013-02-22 19:36:00,
2013-02-22 11:41:00,46.9,42.7,29.56,South,179,8.1,8.1,85,0.00,CLR,CLR,0.31,0.0,WeatherDisplay:10.37,2013-02-22 19:41:00,
2013-02-22 11:47:00,46.9,42.7,29.56,South,179,8.1,8.1,85,0.00,CLR,CLR,0.31,0.0,WeatherDisplay:10.37,2013-02-22 19:47:00,
2013-02-22 11:52:00,46.9,42.7,18.57,South,179,8.1,8.1,85,0.00,CLR,CLR,0.31,0.0,WeatherDisplay:10.37,2013-02-22 19:52:00,
2013-02-22 11:57:00,46.9,42.7,18.57,South,179,8.1,8.1,85,0.00,CLR,CLR,0.31,0.0,WeatherDisplay:10.37,2013-02-22 19:57:00,
2013-02-22 12:02:00,32.0,-47.5,29.56,North,0,8.1,8.1,2,0.00,CLR,CLR,0.31,0.0,WeatherDisplay:10.37,2013-02-22 20:02:00,
2013-02-22 12:07:00,32.0,-47.5,29.56,North,0,8.1,8.1,2,0.00,CLR,CLR,0.31,0.0,WeatherDisplay:10.37,2013-02-22 20:07:00,
2013-02-22 12:12:00,32.0,-47.5,21.41,NW,314,8.1,8.1,2,0.00,CLR,CLR,0.31,0.0,WeatherDisplay:10.37,2013-02-22 20:12:00,
2013-02-22 12:17:00,32.0,-47.5,19.40,NW,314,8.1,8.1,2,0.00,CLR,CLR,0.31,0.0,WeatherDisplay:10.37,2013-02-22 20:17:00,
2013-02-22 12:22:00,32.0,-47.5,29.56,NW,314,8.1,8.1,2,0.00,CLR,CLR,0.31,0.0,WeatherDisplay:10.37,2013-02-22 20:22:00,
2013-02-22 12:27:00,32.0,-47.5,29.56,NW,314,8.1,8.1,2,0.00,CLR,CLR,0.31,0.0,WeatherDisplay:10.37,2013-02-22 20:27:00,
2013-02-22 12:32:00,32.0,-47.5,19.40,SSE,163,8.1,8.1,2,0.00,CLR,CLR,0.31,0.0,WeatherDisplay:10.37,2013-02-22 20:32:00,
2013-02-22 12:37:00,32.0,-47.5,29.56,SSE,163,8.1,8.1,2,0.00,CLR,CLR,0.31,0.0,WeatherDisplay:10.37,2013-02-22 20:37:00,
2013-02-22 12:42:00,32.0,-47.5,29.56,SSE,163,8.1,8.1,2,0.00,CLR,CLR,0.31,0.0,WeatherDisplay:10.37,2013-02-22 20:42:00,
2013-02-22 12:48:00,32.0,-47.5,29.56,SSE,163,8.1,8.1,2,0.00,CLR,CLR,0.31,0.0,WeatherDisplay:10.37,2013-02-22 20:48:00,
2013-02-22 12:53:00,48.7,42.5,22.24,SSE,163,8.1,8.1,79,0.00,CLR,CLR,0.31,0.0,WeatherDisplay:10.37,2013-02-22 20:53:00,
2013-02-22 12:58:00,48.7,42.5,29.56,WSW,240,8.1,8.1,79,0.00,CLR,CLR,0.31,0.0,WeatherDisplay:10.37,2013-02-22 20:58:00,
2013-02-22 13:03:00,48.7,42.5,29.56,WSW,240,8.1,8.1,79,0.00,CLR,CLR,0.31,0.0,WeatherDisplay:10.37,2013-02-22 21:03:00,
2013-02-22 13:08:00,48.7,42.5,29.56,WSW,240,8.1,8.1,79,0.00,CLR,CLR,0.31,0.0,WeatherDisplay:10.37,2013-02-22 21:08:00,
2013-02-22 13:13:00,48.7,42.5,29.56,WSW,240,8.1,8.1,79,0.00,CLR,CLR,0.31,0.0,WeatherDisplay:10.37,2013-02-22 21:13:00,
2013-02-22 13:18:00,32.0,30.7,29.56,WSW,240,8.1,8.1,95,0.00,CLR,CLR,0.31,0.0,WeatherDisplay:10.37,2013-02-22 21:18:00,
2013-02-22 13:23:00,32.0,30.7,29.56,WSW,240,8.1,8.1,95,0.00,CLR,CLR,0.31,0.0,WeatherDisplay:10.37,2013-02-22 21:23:00,
2013-02-22 13:28:00,32.0,30.7,29.56,WSW,240,8.1,8.1,95,0.00,CLR,CLR,0.31,0.0,WeatherDisplay:10.37,2013-02-22 21:28:00,
2013-02-22 13:33:00,32.0,30.7,29.56,WSW,240,8.1,8.1,95,0.00,CLR,CLR,0.31,0.0,WeatherDisplay:10.37,2013-02-22 21:33:00,
2013-02-22 13:38:00,32.0,30.7,29.56,WSW,240,8.1,8.1,95,0.00,CLR,CLR,0.31,0.0,WeatherDisplay:10.37,2013-02-22 21:38:00,
2013-02-22 13:44:00,47.3,39.4,29.56,WSW,240,8.1,8.1,74,0.00,CLR,CLR,0.31,0.0,WeatherDisplay:10.37,2013-02-22 21:44:00,
2013-02-22 13:49:00,47.3,39.4,29.56,NNW,342,8.1,8.1,74,0.00,CLR,CLR,0.31,0.0,WeatherDisplay:10.37,2013-02-22 21:49:00,
2013-02-22 13:54:00,47.3,39.4,29.56,NNW,342,8.1,8.1,74,0.00,CLR,CLR,0.31,0.0,WeatherDisplay:10.37,2013-02-22 21:54:00,
2013-02-22 13:59:00,47.3,39.4,19.52,North,0,8.1,8.3,74,0.00,CLR,CLR,0.31,0.0,WeatherDisplay:10.37,2013-02-22 21:59:00,
2013-02-22 14:04:00,47.3,39.4,29.56,North,0,8.1,8.3,74,0.00,CLR,CLR,0.31,0.0,WeatherDisplay:10.37,2013-02-22 22:04:00,
2013-02-22 14:10:00,47.3,39.4,29.56,North,0,8.1,8.3,74,0.31,RA,RA,0.31,0.0,WeatherDisplay:10.37,2013-02-22 22:10:00,
2013-02-22 14:15:00,48.4,37.5,29.56,North,0,8.1,8.3,66,0.00,CLR,CLR,0.31,0.0,WeatherDisplay:10.37,2013-02-22 22:15:00,
2013-02-22 14:20:00,48.4,37.5,29.56,North,0,8.1,8.3,66,0.00,CLR,CLR,0.31,0.0,WeatherDisplay:10.37,2013-02-22 22:20:00,
2013-02-22 14:25:00,48.4,37.5,21.41,North,0,8.1,8.3,66,0.00,CLR,CLR,0.31,0.0,WeatherDisplay:10.37,2013-02-22 22:25:00,
2013-02-22 14:30:00,48.4,37.5,29.56,North,0,8.1,8.3,66,0.00,CLR,CLR,0.31,0.0,WeatherDisplay:10.37,2013-02-22 22:30:00,
2013-02-22 14:35:00,48.4,37.5,24.24,North,0,8.1,8.3,66,0.00,CLR,CLR,0.31,0.0,WeatherDisplay:10.37,2013-02-22 22:35:00,
2013-02-22 14:40:00,48.4,37.5,24.24,North,0,8.1,8.3,66,0.00,CLR,CLR,0.31,0.0,WeatherDisplay:10.37,2013-02-22 22:40:00,
2013-02-22 14:45:00,48.4,37.5,24.24,WSW,257,8.1,8.1,66,0.00,CLR,CLR,0.31,0.0,WeatherDisplay:10.37,2013-02-22 22:45:00,
2013-02-22 14:50:00,48.4,37.5,22.35,WSW,257,8.1,8.1,66,0.00,CLR,CLR,0.31,0.0,WeatherDisplay:10.37,2013-02-22 22:50:00,
2013-02-22 14:56:00,48.4,37.5,29.56,WSW,257,8.1,8.1,66,0.00,CLR,CLR,0.31,0.0,WeatherDisplay:10.37,2013-02-22 22:56:00,
2013-02-22 15:01:00,48.4,37.5,29.56,WSW,257,8.1,8.1,66,0.00,CLR,CLR,0.31,0.0,WeatherDisplay:10.37,2013-02-22 23:01:00,
2013-02-22 15:06:00,48.4,37.5,29.56,WSW,257,8.1,8.1,66,0.00,CLR,CLR,0.31,0.0,WeatherDisplay:10.37,2013-02-22 23:06:00,
2013-02-22 15:10:00,48.4,37.5,29.56,WSW,257,8.1,8.1,66,0.00,CLR,CLR,0.31,0.0,WeatherDisplay:10.37,2013-02-22 23:10:00,
2013-02-22 15:16:00,48.4,37.5,29.56,WSW,257,8.1,8.1,66,0.00,CLR,CLR,0.31,0.0,WeatherDisplay:10.37,2013-02-22 23:16:00,
2013-02-22 15:21:00,48.4,37.5,29.56,WSW,257,8.1,8.1,66,0.00,CLR,CLR,0.31,0.0,WeatherDisplay:10.37,2013-02-22 23:21:00,
2013-02-22 15:26:00,48.4,37.5,18.46,WSW,257,8.1,8.1,66,0.00,CLR,CLR,0.31,0.0,WeatherDisplay:10.37,2013-02-22 23:26:00,
2013-02-22 15:31:00,48.4,37.5,29.56,WSW,257,8.1,8.1,66,0.00,CLR,CLR,0.31,0.0,WeatherDisplay:10.37,2013-02-22 23:31:00,
2013-02-22 15:36:00,48.4,37.5,29.56,WSW,257,8.1,8.1,66,0.00,CLR,CLR,0.31,0.0,WeatherDisplay:10.37,2013-02-22 23:36:00,
2013-02-22 15:41:00,48.4,37.5,29.56,WSW,257,8.1,8.1,66,0.00,CLR,CLR,0.31,0.0,WeatherDisplay:10.37,2013-02-22 23:41:00,
2013-02-22 15:46:00,48.4,37.5,17.72,WSW,257,8.1,8.1,66,0.00,CLR,CLR,0.31,0.0,WeatherDisplay:10.37,2013-02-22 23:46:00,
2013-02-22 15:52:00,48.4,37.5,18.46,WSW,257,8.1,8.1,66,0.00,CLR,CLR,0.31,0.0,WeatherDisplay:10.37,2013-02-22 23:52:00,
2013-02-22 15:57:00,48.4,37.5,29.56,WSW,257,8.1,8.1,66,0.00,CLR,CLR,0.31,0.0,WeatherDisplay:10.37,2013-02-22 23:57:00,
2013-02-22 16:02:00,48.4,37.5,29.56,WSW,257,8.1,8.1,66,0.00,CLR,CLR,0.31,0.0,WeatherDisplay:10.37,2013-02-23 00:02:00,
2013-02-22 16:07:00,48.4,37.5,29.56,WSW,257,8.1,8.1,66,0.00,CLR,CLR,0.31,0.0,WeatherDisplay:10.37,2013-02-23 00:07:00,
2013-02-22 16:12:00,48.4,37.5,29.56,WSW,257,8.1,8.1,66,0.00,CLR,CLR,0.31,0.0,WeatherDisplay:10.37,2013-02-23 00:12:00,
2013-02-22 16:17:00,43.5,31.0,29.56,WSW,257,8.1,8.1,61,0.00,CLR,CLR,0.31,0.0,WeatherDisplay:10.37,2013-02-23 00:17:00,
2013-02-22 16:22:00,43.5,31.0,29.56,WSW,257,8.1,8.1,61,0.00,CLR,CLR,0.31,0.0,WeatherDisplay:10.37,2013-02-23 00:22:00,
2013-02-22 16:27:00,43.5,31.0,17.72,WSW,257,8.1,8.1,61,0.00,CLR,CLR,0.31,0.0,WeatherDisplay:10.37,2013-02-23 00:27:00,
2013-02-22 16:32:00,43.5,31.0,17.72,South,179,8.1,8.1,61,0.00,CLR,CLR,0.31,0.0,WeatherDisplay:10.37,2013-02-23 00:32:00,
2013-02-22 16:37:00,43.5,31.0,29.56,South,179,8.1,8.1,61,0.00,CLR,CLR,0.31,0.0,WeatherDisplay:10.37,2013-02-23 00:37:00,
2013-02-22 16:43:00,43.5,31.0,29.56,SW,225,8.1,8.1,61,0.00,CLR,CLR,0.35,0.0,WeatherDisplay:10.37,2013-02-23 00:43:00,
2013-02-22 16:48:00,43.5,31.0,17.72,SW,225,8.1,8.1,61,0.00,CLR,CLR,0.35,0.0,WeatherDisplay:10.37,2013-02-23 00:48:00,
2013-02-22 16:53:00,43.5,31.0,29.56,SW,225,8.1,8.1,61,0.00,CLR,CLR,0.35,0.0,WeatherDisplay:10.37,2013-02-23 00:53:00,
2013-02-22 16:58:00,43.5,31.0,17.72,SW,225,8.1,8.1,61,0.00,CLR,CLR,0.35,0.0,WeatherDisplay:10.37,2013-02-23 00:58:00,
2013-02-22 17:03:00,43.5,31.0,29.56,SW,225,8.1,8.1,61,0.00,CLR,CLR,0.35,0.0,WeatherDisplay:10.37,2013-02-23 01:03:00,
2013-02-22 17:08:00,43.5,31.0,18.46,SW,225,8.1,8.1,61,0.00,CLR,CLR,0.35,0.0,WeatherDisplay:10.37,2013-02-23 01:08:00,
2013-02-22 17:14:00,43.5,31.0,29.56,SW,225,8.1,8.1,61,0.00,CLR,CLR,0.35,0.0,WeatherDisplay:10.37,2013-02-23 01:14:00,
2013-02-22 17:19:00,43.5,31.0,29.56,SW,225,8.1,8.1,61,0.00,CLR,CLR,0.35,0.0,WeatherDisplay:10.37,2013-02-23 01:19:00,
2013-02-22 17:24:00,43.5,31.0,29.56,SW,225,8.1,8.1,61,0.00,CLR,CLR,0.35,0.0,WeatherDisplay:10.37,2013-02-23 01:24:00,
2013-02-22 17:29:00,43.5,31.0,29.56,SW,225,8.1,8.1,61,0.00,CLR,CLR,0.35,0.0,WeatherDisplay:10.37,2013-02-23 01:29:00,
2013-02-22 17:34:00,43.5,31.0,29.56,SW,225,8.1,8.1,61,0.00,CLR,CLR,0.35,0.0,WeatherDisplay:10.37,2013-02-23 01:34:00,
2013-02-22 17:39:00,43.5,31.0,29.56,SW,225,8.1,8.1,61,0.00,CLR,CLR,0.35,0.0,WeatherDisplay:10.37,2013-02-23 01:39:00,
2013-02-22 17:44:00,43.5,31.0,29.56,South,170,8.1,8.1,61,0.00,CLR,CLR,0.35,0.0,WeatherDisplay:10.37,2013-02-23 01:44:00,
2013-02-22 17:50:00,43.5,31.0,17.72,South,170,8.1,8.1,61,0.00,CLR,CLR,0.35,0.0,WeatherDisplay:10.37,2013-02-23 01:50:00,
2013-02-22 17:55:00,43.5,31.0,17.72,South,170,8.1,8.1,61,0.00,CLR,CLR,0.35,0.0,WeatherDisplay:10.37,2013-02-23 01:55:00,
2013-02-22 18:00:00,43.5,31.0,29.56,South,170,8.1,8.1,61,0.00,CLR,CLR,0.35,0.0,WeatherDisplay:10.37,2013-02-23 02:00:00,
2013-02-22 18:05:00,43.5,31.0,29.56,South,170,8.1,8.1,61,0.00,CLR,CLR,0.35,0.0,WeatherDisplay:10.37,2013-02-23 02:05:00,
2013-02-22 18:10:00,43.5,31.0,29.56,South,170,8.1,8.1,61,0.00,CLR,CLR,0.35,0.0,WeatherDisplay:10.37,2013-02-23 02:10:00,
2013-02-22 18:15:00,43.5,31.0,29.56,South,170,8.1,8.1,61,0.00,CLR,CLR,0.35,0.0,WeatherDisplay:10.37,2013-02-23 02:15:00,
2013-02-22 18:20:00,43.5,31.0,29.56,South,170,8.1,8.1,61,0.00,CLR,CLR,0.35,0.0,WeatherDisplay:10.37,2013-02-23 02:20:00,
2013-02-22 18:25:00,43.5,31.0,29.56,South,170,8.1,8.1,61,0.00,CLR,CLR,0.35,0.0,WeatherDisplay:10.37,2013-02-23 02:25:00,
2013-02-22 18:30:00,43.5,31.0,29.56,South,170,8.1,8.1,61,0.00,CLR,CLR,0.35,0.0,WeatherDisplay:10.37,2013-02-23 02:30:00,
2013-02-22 18:35:00,43.5,31.0,29.56,South,170,8.1,8.1,61,0.00,CLR,CLR,0.35,0.0,WeatherDisplay:10.37,2013-02-23 02:35:00,
2013-02-22 18:40:00,43.5,31.0,29.56,South,170,8.1,8.1,61,0.00,CLR,CLR,0.35,0.0,WeatherDisplay:10.37,2013-02-23 02:40:00,
2013-02-22 18:45:00,43.5,31.0,29.56,South,170,8.1,8.1,61,0.00,CLR,CLR,0.35,0.0,WeatherDisplay:10.37,2013-02-23 02:45:00,
2013-02-22 18:50:00,43.5,31.0,29.56,South,170,8.1,8.1,61,0.00,CLR,CLR,0.35,0.0,WeatherDisplay:10.37,2013-02-23 02:50:00,
2013-02-22 18:55:00,43.5,31.0,29.56,West,273,8.1,8.1,61,0.00,CLR,CLR,0.35,0.0,WeatherDisplay:10.37,2013-02-23 02:55:00,
2013-02-22 19:00:00,43.5,31.0,29.56,West,273,8.1,8.1,61,0.00,CLR,CLR,0.35,0.0,WeatherDisplay:10.37,2013-02-23 03:00:00,
2013-02-22 19:06:00,43.5,31.0,18.46,West,273,8.1,8.1,61,0.00,CLR,CLR,0.35,0.0,WeatherDisplay:10.37,2013-02-23 03:06:00,
2013-02-22 19:11:00,39.2,31.3,18.46,West,273,8.1,8.1,73,0.00,CLR,CLR,0.35,0.0,WeatherDisplay:10.37,2013-02-23 03:11:00,
2013-02-22 19:16:00,39.2,31.3,29.56,West,273,8.1,8.1,73,0.00,CLR,CLR,0.35,0.0,WeatherDisplay:10.37,2013-02-23 03:16:00,
2013-02-22 19:21:00,39.2,31.3,29.56,West,273,8.1,8.1,73,0.00,CLR,CLR,0.35,0.0,WeatherDisplay:10.37,2013-02-23 03:21:00,
2013-02-22 19:26:00,39.2,31.3,29.56,West,271,8.1,0.0,73,0.00,CLR,CLR,0.35,0.0,WeatherDisplay:10.37,2013-02-23 03:26:00,
2013-02-22 19:31:00,39.2,31.3,29.56,West,271,8.1,0.0,73,0.00,CLR,CLR,0.35,0.0,WeatherDisplay:10.37,2013-02-23 03:31:00,
2013-02-22 19:36:00,39.2,31.3,29.56,West,271,8.1,0.0,73,0.00,CLR,CLR,0.35,0.0,WeatherDisplay:10.37,2013-02-23 03:36:00,
2013-02-22 19:41:00,39.2,31.3,29.56,West,271,8.1,0.0,73,0.00,CLR,CLR,0.35,0.0,WeatherDisplay:10.37,2013-02-23 03:41:00,
2013-02-22 19:46:00,39.2,31.3,29.56,West,271,8.1,0.0,73,0.00,CLR,CLR,0.35,0.0,WeatherDisplay:10.37,2013-02-23 03:46:00,
2013-02-22 19:51:00,39.2,31.3,29.56,West,271,8.1,0.0,73,0.00,CLR,CLR,0.35,0.0,WeatherDisplay:10.37,2013-02-23 03:51:00,
2013-02-22 19:57:00,39.2,31.3,29.56,West,271,8.1,0.0,73,0.00,CLR,CLR,0.35,0.0,WeatherDisplay:10.37,2013-02-23 03:57:00,
2013-02-22 20:02:00,39.2,31.3,29.56,West,271,8.1,0.0,73,0.00,CLR,CLR,0.35,0.0,WeatherDisplay:10.37,2013-02-23 04:02:00,
2013-02-22 20:07:00,39.2,31.3,29.56,West,271,8.1,0.0,73,0.00,CLR,CLR,0.35,0.0,WeatherDisplay:10.37,2013-02-23 04:07:00,
2013-02-22 20:12:00,39.2,31.3,29.56,West,271,8.1,0.0,73,0.00,CLR,CLR,0.35,0.0,WeatherDisplay:10.37,2013-02-23 04:12:00,
2013-02-22 20:17:00,39.2,31.3,29.56,West,271,8.1,0.0,73,0.00,CLR,CLR,0.35,0.0,WeatherDisplay:10.37,2013-02-23 04:17:00,
2013-02-22 20:22:00,39.2,31.3,29.56,West,271,8.1,0.0,73,0.00,CLR,CLR,0.35,0.0,WeatherDisplay:10.37,2013-02-23 04:22:00,
2013-02-22 20:27:00,39.2,31.3,17.72,West,271,8.1,0.0,73,0.00,CLR,CLR,0.35,0.0,WeatherDisplay:10.37,2013-02-23 04:27:00,
2013-02-22 20:32:00,39.2,31.3,29.56,West,271,8.1,0.0,73,0.00,CLR,CLR,0.35,0.0,WeatherDisplay:10.37,2013-02-23 04:32:00,
2013-02-22 20:37:00,39.2,31.3,29.56,West,271,8.1,0.0,73,0.00,CLR,CLR,0.35,0.0,WeatherDisplay:10.37,2013-02-23 04:37:00,
2013-02-22 20:43:00,39.2,31.3,17.72,West,271,8.1,0.0,73,0.00,CLR,CLR,0.35,0.0,WeatherDisplay:10.37,2013-02-23 04:43:00,
2013-02-22 20:48:00,39.2,31.3,29.56,West,271,8.1,0.0,73,0.00,CLR,CLR,0.35,0.0,WeatherDisplay:10.37,2013-02-23 04:48:00,
2013-02-22 20:53:00,39.2,31.3,29.56,West,271,8.1,0.0,73,0.00,CLR,CLR,0.35,0.0,WeatherDisplay:10.37,2013-02-23 04:53:00,
2013-02-22 20:58:00,39.2,31.3,29.56,West,271,8.1,0.0,73,0.00,CLR,CLR,0.35,0.0,WeatherDisplay:10.37,2013-02-23 04:58:00,
2013-02-22 21:00:00,39.2,31.3,29.56,West,271,8.1,0.0,73,0.00,CLR,CLR,0.35,0.0,WeatherDisplay:10.37,2013-02-23 05:00:00,
2013-02-22 21:01:00,39.2,31.3,29.56,West,271,8.1,0.0,73,0.00,CLR,CLR,0.35,0.0,WeatherDisplay:10.37,2013-02-23 05:01:00,
2013-02-22 21:06:00,39.2,31.3,18.46,NW,320,8.1,8.1,73,0.00,CLR,CLR,0.35,0.0,WeatherDisplay:10.37,2013-02-23 05:06:00,
2013-02-22 21:11:00,39.2,31.3,18.46,NW,320,11.1,11.1,73,0.00,CLR,CLR,0.35,0.0,WeatherDisplay:10.37,2013-02-23 05:11:00,
2013-02-22 21:16:00,39.2,31.3,18.46,NW,320,11.1,11.1,73,0.00,CLR,CLR,0.43,0.0,WeatherDisplay:10.37,2013-02-23 05:16:00,
2013-02-22 21:21:00,39.2,31.3,29.56,NW,320,8.1,8.1,73,0.00,CLR,CLR,0.43,0.0,WeatherDisplay:10.37,2013-02-23 05:21:00,
2013-02-22 21:26:00,39.2,31.3,29.56,NW,320,8.1,8.1,73,0.00,CLR,CLR,0.43,0.0,WeatherDisplay:10.37,2013-02-23 05:26:00,
2013-02-22 21:31:00,39.2,31.3,29.56,NW,320,8.1,8.1,73,0.00,CLR,CLR,0.43,0.0,WeatherDisplay:10.37,2013-02-23 05:31:00,
2013-02-22 21:36:00,39.2,31.3,29.56,SSE,162,8.1,0.0,73,0.00,CLR,CLR,0.43,0.0,WeatherDisplay:10.37,2013-02-23 05:36:00,
2013-02-22 21:42:00,39.2,31.3,29.56,SSE,162,8.1,0.0,73,0.00,CLR,CLR,0.43,0.0,WeatherDisplay:10.37,2013-02-23 05:42:00,
2013-02-22 21:47:00,39.4,33.7,29.56,SSE,162,8.1,0.0,80,0.00,CLR,CLR,0.43,0.0,WeatherDisplay:10.37,2013-02-23 05:47:00,
2013-02-22 21:52:00,39.4,33.7,29.56,SSE,162,8.1,0.0,80,0.00,CLR,CLR,0.43,0.0,WeatherDisplay:10.37,2013-02-23 05:52:00,
2013-02-22 21:57:00,39.4,33.7,29.56,SSE,162,8.1,0.0,80,0.00,CLR,CLR,0.43,0.0,WeatherDisplay:10.37,2013-02-23 05:57:00,
2013-02-22 22:02:00,39.4,33.7,29.56,SSE,162,8.1,0.0,80,0.00,CLR,CLR,0.43,0.0,WeatherDisplay:10.37,2013-02-23 06:02:00,
2013-02-22 22:07:00,39.4,33.7,17.72,SSE,162,8.1,0.0,80,0.00,CLR,CLR,0.43,0.0,WeatherDisplay:10.37,2013-02-23 06:07:00,
2013-02-22 22:12:00,39.4,33.7,29.56,SSE,162,8.1,0.0,80,0.00,CLR,CLR,0.43,0.0,WeatherDisplay:10.37,2013-02-23 06:12:00,
2013-02-22 22:17:00,39.4,33.7,29.56,SSE,162,8.1,0.0,80,0.00,CLR,CLR,0.43,0.0,WeatherDisplay:10.37,2013-02-23 06:17:00,
2013-02-22 22:22:00,39.4,33.7,29.56,South,180,8.1,0.0,80,0.00,CLR,CLR,0.43,0.0,WeatherDisplay:10.37,2013-02-23 06:22:00,
2013-02-22 22:27:00,39.4,33.7,29.56,South,180,8.1,0.0,80,0.00,CLR,CLR,0.43,0.0,WeatherDisplay:10.37,2013-02-23 06:27:00,
2013-02-22 22:33:00,39.4,33.7,29.56,South,178,8.1,8.1,80,0.00,CLR,CLR,0.43,0.0,WeatherDisplay:10.37,2013-02-23 06:33:00,
2013-02-22 22:38:00,40.6,34.6,29.56,SSE,162,8.1,8.1,79,0.00,CLR,CLR,0.43,0.0,WeatherDisplay:10.37,2013-02-23 06:38:00,
2013-02-22 22:43:00,40.5,34.5,29.56,North,0,8.1,8.1,79,0.00,CLR,CLR,0.43,0.0,WeatherDisplay:10.37,2013-02-23 06:43:00,
2013-02-22 22:48:00,40.1,33.8,17.72,North,0,8.1,8.1,78,0.00,CLR,CLR,0.43,0.0,WeatherDisplay:10.37,2013-02-23 06:48:00,
2013-02-22 22:53:00,40.1,33.8,17.72,North,0,8.1,8.1,78,0.00,CLR,CLR,0.43,0.0,WeatherDisplay:10.37,2013-02-23 06:53:00,
2013-02-22 22:58:00,40.1,33.8,17.72,North,0,8.1,8.1,78,0.00,CLR,CLR,0.43,0.0,WeatherDisplay:10.37,2013-02-23 06:58:00,
2013-02-22 23:03:00,40.1,33.8,29.56,North,0,8.1,8.1,78,0.00,CLR,CLR,0.43,0.0,WeatherDisplay:10.37,2013-02-23 07:03:00,
2013-02-22 23:08:00,40.1,33.8,29.56,North,0,8.1,8.1,78,0.00,CLR,CLR,0.43,0.0,WeatherDisplay:10.37,2013-02-23 07:08:00,
2013-02-22 23:13:00,40.1,33.8,18.46,North,0,8.1,8.1,78,0.00,CLR,CLR,0.43,0.0,WeatherDisplay:10.37,2013-02-23 07:13:00,
2013-02-22 23:18:00,40.5,34.8,29.56,North,0,8.1,8.1,80,0.00,CLR,CLR,0.43,0.0,WeatherDisplay:10.37,2013-02-23 07:18:00,
2013-02-22 23:23:00,40.5,34.8,29.56,North,0,8.1,8.1,80,0.00,CLR,CLR,0.43,0.0,WeatherDisplay:10.37,2013-02-23 07:23:00,
2013-02-22 23:29:00,40.5,34.8,29.56,North,0,8.1,8.1,80,0.00,CLR,CLR,0.43,0.0,WeatherDisplay:10.37,2013-02-23 07:29:00,
2013-02-22 23:34:00,40.5,34.8,29.56,North,0,8.1,8.1,80,0.00,CLR,CLR,0.43,0.0,WeatherDisplay:10.37,2013-02-23 07:34:00,
2013-02-22 23:39:00,40.5,34.8,29.56,North,0,8.1,8.1,80,0.00,CLR,CLR,0.43,0.0,WeatherDisplay:10.37,2013-02-23 07:39:00,
2013-02-22 23:44:00,40.5,34.8,29.56,North,0,8.1,8.1,80,0.00,CLR,CLR,0.43,0.0,WeatherDisplay:10.37,2013-02-23 07:44:00,
2013-02-22 23:49:00,40.5,34.8,29.56,SSE,165,8.1,0.0,80,0.00,CLR,CLR,0.43,0.0,WeatherDisplay:10.37,2013-02-23 07:49:00,
2013-02-22 23:54:00,40.5,34.8,29.56,SSE,165,8.1,0.0,80,0.00,CLR,CLR,0.43,0.0,WeatherDisplay:10.37,2013-02-23 07:54:00,
2013-02-22 23:59:00,40.5,34.8,19.52,WSW,242,8.1,0.0,80,0.00,CLR,CLR,0.43,0.0,WeatherDisplay:10.37,2013-02-23 07:59:00,